Terminal Aerodrome Forecast
Issued by NWS

Home | Current Version | Previous Version | Text Only | Print | Product List | Glossary On
Versions: 1 2 3 4 5 6 7 8 9 10 11 12 13 14 15
000
FTUS42 KTAE 281120
TAFVLD
TAF
KVLD 281120Z 2812/2912 08004KT P6SM VCSH OVC015
     FM282200 09006KT P6SM VCTS BKN025CB
     FM290600 10007KT P6SM OVC007=

USA.gov is the U.S. government's official web portal to all federal, state and local government web resources and services.